createdAt,value
2016-03-27T09:35:59.727Z,4.11
2016-03-27T09:36:12.555Z,4.15
2016-03-27T09:36:25.870Z,4.18
2016-03-27T09:36:39.136Z,4.17
2016-03-27T09:36:52.432Z,4.12
2016-03-27T09:37:05.729Z,4.07
2016-03-27T09:37:18.854Z,4.12
2016-03-27T09:37:32.121Z,4.15
2016-03-27T09:37:45.402Z,4.11
2016-03-27T09:37:58.715Z,4.26
2016-03-27T09:38:12.590Z,4.1
2016-03-27T09:38:26.123Z,4.1
2016-03-27T09:38:39.389Z,4.08
2016-03-27T09:38:52.670Z,3.96
2016-03-27T09:39:05.967Z,3.99
2016-03-27T09:39:19.248Z,3.97
2016-03-27T09:39:32.516Z,3.99
2016-03-27T09:39:45.812Z,3.97
2016-03-27T09:39:59.094Z,3.86
2016-03-27T09:40:12.375Z,3.84
2016-03-27T09:40:25.658Z,3.78
2016-03-27T09:40:38.955Z,3.76
2016-03-27T09:40:52.252Z,3.71
2016-03-27T09:41:05.518Z,3.74
2016-03-27T09:41:18.814Z,3.79
2016-03-27T09:41:32.099Z,3.76
2016-03-27T09:41:45.396Z,3.84
2016-03-27T09:41:58.708Z,3.9
2016-03-27T09:42:11.974Z,3.94
2016-03-27T09:42:25.256Z,3.86
2016-03-27T09:42:38.553Z,3.86
2016-03-27T09:42:51.834Z,3.93
2016-03-27T09:43:05.115Z,3.89
2016-03-27T09:43:18.412Z,3.82
2016-03-27T09:43:31.695Z,3.82
2016-03-27T09:43:44.977Z,3.92
2016-03-27T09:43:58.258Z,3.89
2016-03-27T09:44:11.570Z,3.84
2016-03-27T09:44:24.855Z,3.69
2016-03-27T09:44:38.136Z,3.81
2016-03-27T09:44:51.433Z,3.82
2016-03-27T09:45:04.730Z,3.84
2016-03-27T09:45:17.995Z,3.81
2016-03-27T09:45:31.310Z,3.85
2016-03-27T09:45:44.591Z,3.81
2016-03-27T09:45:57.872Z,3.86
2016-03-27T09:46:11.169Z,3.79
2016-03-27T09:46:24.453Z,3.79
2016-03-27T09:46:37.735Z,3.67
2016-03-27T09:46:51.016Z,3.71
2016-03-27T09:47:04.297Z,3.74
2016-03-27T09:47:17.578Z,3.72
2016-03-27T09:47:30.846Z,3.63
2016-03-27T09:47:44.143Z,3.76
2016-03-27T09:47:57.424Z,3.79
2016-03-27T09:48:10.893Z,3.89
2016-03-27T09:48:24.317Z,3.96
2016-03-27T09:48:37.598Z,4
2016-03-27T09:48:50.895Z,3.94
2016-03-27T09:49:04.192Z,4.02
2016-03-27T09:49:17.457Z,4
2016-03-27T09:49:30.726Z,3.97
2016-03-27T09:49:44.023Z,3.86
2016-03-27T09:49:57.304Z,3.99
2016-03-27T09:50:10.601Z,3.81
2016-03-27T09:50:23.901Z,3.82
2016-03-27T09:50:37.167Z,3.78
2016-03-27T09:50:50.463Z,3.72
2016-03-27T09:51:03.745Z,3.58
2016-03-27T09:51:17.042Z,3.48
2016-03-27T09:51:30.326Z,3.34
2016-03-27T09:51:43.607Z,3.16
2016-03-27T09:51:56.748Z,3.21
2016-03-27T09:52:10.013Z,3.14
2016-03-27T09:52:23.297Z,3.06
2016-03-27T09:52:36.609Z,2.99
2016-03-27T09:52:49.890Z,2.83
2016-03-27T09:53:03.172Z,2.7
2016-03-27T09:53:16.468Z,2.6
2016-03-27T09:53:29.753Z,2.55
2016-03-27T09:53:43.050Z,2.54
2016-03-27T09:53:56.362Z,2.55
2016-03-27T09:54:09.643Z,2.6
2016-03-27T09:54:22.940Z,2.47
2016-03-27T09:54:36.223Z,2.3
2016-03-27T09:54:49.520Z,2.18
2016-03-27T09:55:02.802Z,2.24
2016-03-27T09:55:16.083Z,2.22
2016-03-27T09:55:29.384Z,2.12
2016-03-27T09:55:42.649Z,2.01
2016-03-27T09:55:55.931Z,2.04
2016-03-27T09:56:09.243Z,1.97
2016-03-27T09:56:22.524Z,1.9
2016-03-27T09:56:35.808Z,1.9
2016-03-27T09:56:49.089Z,1.86
2016-03-27T09:57:02.354Z,1.76
2016-03-27T09:57:15.620Z,1.78
2016-03-27T09:57:28.888Z,1.71
2016-03-27T09:57:42.185Z,1.68
2016-03-27T09:57:55.450Z,1.65
2016-03-27T09:58:08.716Z,1.57
2016-03-27T09:58:22.013Z,1.56
2016-03-27T09:58:35.282Z,1.5
2016-03-27T09:58:48.579Z,1.48
2016-03-27T09:59:01.860Z,1.46
2016-03-27T09:59:15.142Z,1.51
2016-03-27T09:59:27.941Z,1.53
2016-03-27T09:59:41.081Z,1.53
2016-03-27T09:59:54.362Z,1.56
2016-03-27T10:00:07.644Z,1.47
2016-03-27T10:00:20.941Z,1.47
2016-03-27T10:00:34.224Z,1.48
2016-03-27T10:00:47.521Z,1.46
2016-03-27T10:01:00.802Z,1.38
2016-03-27T10:01:14.083Z,1.44
2016-03-27T10:01:27.368Z,1.46
2016-03-27T10:01:40.634Z,1.4
2016-03-27T10:01:53.947Z,1.4
2016-03-27T10:02:07.228Z,1.47
2016-03-27T10:02:20.509Z,1.38
2016-03-27T10:02:33.808Z,1.35
2016-03-27T10:02:47.089Z,1.36
2016-03-27T10:03:00.370Z,1.46
2016-03-27T10:03:13.620Z,1.33
2016-03-27T10:03:27.123Z,1.36
2016-03-27T10:03:40.405Z,1.32
2016-03-27T10:03:53.905Z,1.3
2016-03-27T10:04:07.186Z,1.33
2016-03-27T10:04:20.452Z,1.39
2016-03-27T10:04:33.736Z,1.5
2016-03-27T10:04:47.017Z,1.38
2016-03-27T10:05:00.298Z,1.38
2016-03-27T10:05:13.580Z,1.35
2016-03-27T10:05:26.863Z,1.44
2016-03-27T10:05:40.144Z,1.39
2016-03-27T10:05:53.425Z,1.42
2016-03-27T10:06:06.707Z,1.36
2016-03-27T10:06:20.050Z,1.46
2016-03-27T10:06:33.350Z,1.42
2016-03-27T10:06:46.631Z,1.48
2016-03-27T10:06:59.928Z,1.4
2016-03-27T10:07:13.194Z,1.48
2016-03-27T10:07:26.478Z,1.4
2016-03-27T10:07:39.775Z,1.35
2016-03-27T10:07:53.041Z,1.36
2016-03-27T10:08:06.322Z,1.36
2016-03-27T10:08:19.603Z,1.3
2016-03-27T10:08:32.886Z,1.21
2016-03-27T10:08:46.152Z,1.35
2016-03-27T10:08:59.433Z,1.29
2016-03-27T10:09:12.730Z,1.24
2016-03-27T10:09:26.014Z,1.24
2016-03-27T10:09:39.296Z,1.18
2016-03-27T10:09:52.593Z,1.2
2016-03-27T10:10:05.874Z,1.24
2016-03-27T10:10:19.139Z,1.22
2016-03-27T10:10:32.439Z,1.17
2016-03-27T10:10:45.705Z,1.2
2016-03-27T10:10:58.986Z,1.21
2016-03-27T10:11:12.283Z,1.17
2016-03-27T10:11:25.566Z,1.1
2016-03-27T10:11:38.832Z,1.12
2016-03-27T10:11:51.957Z,0.99
2016-03-27T10:12:05.238Z,0.96
2016-03-27T10:12:18.535Z,0.99
2016-03-27T10:12:31.663Z,0.84
2016-03-27T10:12:44.960Z,0.76
2016-03-27T10:12:58.241Z,0.69
2016-03-27T10:13:11.538Z,0.41
2016-03-27T10:13:24.838Z,0.26
2016-03-27T10:13:38.135Z,0.2
2016-03-27T10:13:51.400Z,0.2
2016-03-27T10:14:04.697Z,0.31
2016-03-27T10:14:17.963Z,0.17
2016-03-27T10:14:31.246Z,0.32
2016-03-27T10:14:44.559Z,0.37
2016-03-27T10:14:57.840Z,0.44
2016-03-27T10:15:11.137Z,0.45
2016-03-27T10:15:24.421Z,0.58
2016-03-27T10:15:37.702Z,0.44
2016-03-27T10:15:50.984Z,0.6
2016-03-27T10:16:04.265Z,0.67
2016-03-27T10:16:17.593Z,0.81
2016-03-27T10:16:30.862Z,0.76
2016-03-27T10:16:44.143Z,0.84
2016-03-27T10:16:57.424Z,0.79
2016-03-27T10:17:10.705Z,0.72
2016-03-27T10:17:23.832Z,0.72
2016-03-27T10:17:36.973Z,0.76
2016-03-27T10:17:50.254Z,0.82
2016-03-27T10:18:03.535Z,0.82
2016-03-27T10:18:17.035Z,0.75
2016-03-27T10:18:30.351Z,0.76
2016-03-27T10:18:43.632Z,0.71
2016-03-27T10:18:56.913Z,0.81
2016-03-27T10:19:24.370Z,0.66
2016-03-27T10:19:37.651Z,0.72
2016-03-27T10:19:50.932Z,0.64
2016-03-27T10:20:04.213Z,0.69
2016-03-27T10:20:17.495Z,0.64
2016-03-27T10:20:30.778Z,0.69
2016-03-27T10:20:44.106Z,0.66
2016-03-27T10:20:57.387Z,0.63
2016-03-27T10:21:10.668Z,0.67
2016-03-27T10:21:23.969Z,0.56
2016-03-27T10:21:37.251Z,0.56
2016-03-27T10:21:50.516Z,0.58
2016-03-27T10:22:03.813Z,0.41
2016-03-27T10:22:17.079Z,0.38
2016-03-27T10:22:30.393Z,0.35
2016-03-27T10:22:43.674Z,0.35
2016-03-27T10:22:56.956Z,0.28
2016-03-27T10:23:10.221Z,0.23
2016-03-27T10:23:23.503Z,0.23
2016-03-27T10:23:36.801Z,0.1
2016-03-27T10:23:50.083Z,-0.04
2016-03-27T10:24:03.364Z,-0.07
2016-03-27T10:24:16.661Z,-0.18
2016-03-27T10:24:29.930Z,-0.27
2016-03-27T10:24:43.212Z,-0.25
2016-03-27T10:24:56.509Z,-0.36
2016-03-27T10:25:10.009Z,-0.31
2016-03-27T10:25:23.134Z,-0.34
2016-03-27T10:25:36.448Z,-0.34
2016-03-27T10:25:49.714Z,-0.33
2016-03-27T10:26:02.964Z,-0.33
2016-03-27T10:26:16.229Z,-0.41
2016-03-27T10:26:29.497Z,-0.25
2016-03-27T10:26:42.778Z,-0.36
2016-03-27T10:26:56.044Z,-0.31
2016-03-27T10:27:09.309Z,-0.25
2016-03-27T10:27:22.591Z,-0.25
2016-03-27T10:27:35.907Z,-0.16
2016-03-27T10:27:49.220Z,-0.13
2016-03-27T10:28:02.501Z,-0.16
2016-03-27T10:28:15.782Z,-0.16
2016-03-27T10:28:29.081Z,-0.13
2016-03-27T10:28:42.362Z,-0.22
2016-03-27T10:28:55.503Z,-0.3
2016-03-27T10:29:08.800Z,-0.23
2016-03-27T10:29:22.065Z,-0.36
2016-03-27T10:29:35.350Z,-0.33
2016-03-27T10:29:48.647Z,-0.36
2016-03-27T10:30:01.928Z,-0.34
2016-03-27T10:30:15.225Z,-0.43
2016-03-27T10:30:28.524Z,-0.52
2016-03-27T10:30:41.805Z,-0.46
2016-03-27T10:30:55.102Z,-0.49
2016-03-27T10:31:08.242Z,-0.46
2016-03-27T10:31:21.524Z,-0.48
2016-03-27T10:31:34.808Z,-0.45
2016-03-27T10:31:48.089Z,-0.54
2016-03-27T10:32:01.370Z,-0.34
2016-03-27T10:32:14.652Z,-0.36
2016-03-27T10:32:27.935Z,-0.34
2016-03-27T10:32:41.263Z,-0.3
2016-03-27T10:32:54.529Z,-0.34
2016-03-27T10:33:07.888Z,-0.36
2016-03-27T10:33:21.700Z,-0.46
2016-03-27T10:33:34.970Z,-0.38
2016-03-27T10:33:48.251Z,-0.48
2016-03-27T10:34:01.533Z,-0.46
2016-03-27T10:34:14.829Z,-0.48
2016-03-27T10:34:28.113Z,-0.43
2016-03-27T10:34:41.378Z,-0.38
2016-03-27T10:34:54.675Z,-0.46
2016-03-27T10:35:07.956Z,-0.34
2016-03-27T10:35:21.081Z,-0.28
2016-03-27T10:35:34.365Z,-0.34
2016-03-27T10:35:47.662Z,-0.41
2016-03-27T10:36:00.927Z,-0.31
2016-03-27T10:36:14.208Z,-0.36
2016-03-27T10:36:27.494Z,-0.25
2016-03-27T10:36:40.775Z,-0.16
2016-03-27T10:36:54.056Z,-0.15
2016-03-27T10:37:07.353Z,-0.15
2016-03-27T10:37:20.619Z,-0.07
2016-03-27T10:37:33.902Z,0.08
2016-03-27T10:37:47.058Z,0.1
2016-03-27T10:38:00.339Z,0.09
2016-03-27T10:38:13.605Z,0.17
2016-03-27T10:38:26.921Z,0.26
2016-03-27T10:38:40.342Z,0.21
2016-03-27T10:38:53.624Z,0.19
2016-03-27T10:39:06.905Z,0.28
2016-03-27T10:39:20.030Z,0.32
2016-03-27T10:39:33.314Z,0.31
2016-03-27T10:39:46.611Z,0.34
2016-03-27T10:39:59.908Z,0.17
2016-03-27T10:40:13.189Z,0.31
2016-03-27T10:40:26.488Z,0.24
2016-03-27T10:40:39.785Z,0.32
2016-03-27T10:40:53.082Z,0.32
2016-03-27T10:41:06.394Z,0.28
2016-03-27T10:41:19.691Z,0.28
2016-03-27T10:41:32.975Z,0.34
2016-03-27T10:41:46.241Z,0.27
2016-03-27T10:41:59.554Z,0.14
2016-03-27T10:42:12.835Z,0.13
2016-03-27T10:42:26.135Z,0.02
2016-03-27T10:42:39.432Z,0.09
2016-03-27T10:42:52.713Z,0.13
2016-03-27T10:43:05.978Z,0.13
2016-03-27T10:43:19.103Z,0.17
2016-03-27T10:43:32.371Z,0.41
2016-03-27T10:43:45.668Z,0.35
2016-03-27T10:43:58.262Z,0.34
2016-03-27T10:44:11.574Z,0.35
2016-03-27T10:44:24.843Z,0.47
2016-03-27T10:44:38.124Z,0.34
2016-03-27T10:44:51.405Z,0.35
2016-03-27T10:45:04.687Z,0.35
2016-03-27T10:45:17.983Z,0.35
2016-03-27T10:45:31.268Z,0.28
2016-03-27T10:45:44.580Z,0.34
2016-03-27T10:45:57.846Z,0.37
2016-03-27T10:46:11.111Z,0.41
2016-03-27T10:46:24.396Z,0.32
2016-03-27T10:46:37.677Z,0.35
2016-03-27T10:46:50.989Z,0.34
2016-03-27T10:47:04.286Z,0.32
2016-03-27T10:47:17.630Z,0.31
2016-03-27T10:47:30.899Z,0.28
2016-03-27T10:47:44.180Z,0.37
2016-03-27T10:47:57.446Z,0.34
2016-03-27T10:48:10.742Z,0.23
2016-03-27T10:48:24.102Z,0.35
2016-03-27T10:48:37.369Z,0.37
2016-03-27T10:48:50.635Z,0.34
2016-03-27T10:49:03.901Z,0.35
2016-03-27T10:49:17.198Z,0.37
2016-03-27T10:49:30.496Z,0.38
2016-03-27T10:49:43.809Z,0.35
2016-03-27T10:49:57.090Z,0.28
2016-03-27T10:50:10.371Z,0.35
2016-03-27T10:50:23.684Z,0.34
2016-03-27T10:50:36.968Z,0.35
2016-03-27T10:50:50.281Z,0.53
2016-03-27T10:51:03.593Z,0.35
2016-03-27T10:51:16.874Z,0.38
2016-03-27T10:51:30.174Z,0.39
2016-03-27T10:51:43.440Z,0.37
2016-03-27T10:51:56.737Z,0.28
2016-03-27T10:52:10.018Z,0.34
2016-03-27T10:52:23.284Z,0.38
2016-03-27T10:52:36.583Z,0.38
2016-03-27T10:52:49.848Z,0.27
2016-03-27T10:53:03.129Z,0.35
2016-03-27T10:53:16.411Z,0.26
2016-03-27T10:53:29.726Z,0.34
2016-03-27T10:53:43.023Z,0.26
2016-03-27T10:53:56.336Z,0.34
2016-03-27T10:54:09.617Z,0.27
2016-03-27T10:54:22.882Z,0.34
2016-03-27T10:54:36.167Z,0.24
2016-03-27T10:54:49.432Z,0.31
2016-03-27T10:55:02.714Z,0.34
2016-03-27T10:55:16.026Z,0.41
2016-03-27T10:55:29.310Z,0.35
2016-03-27T10:55:42.560Z,0.38
2016-03-27T10:55:55.826Z,0.37
2016-03-27T10:56:08.935Z,0.31
2016-03-27T10:56:22.217Z,0.34
2016-03-27T10:56:35.515Z,0.28
2016-03-27T10:56:48.828Z,0.26
2016-03-27T10:57:02.094Z,0.27
2016-03-27T10:57:15.219Z,0.35
2016-03-27T10:57:28.487Z,0.28
2016-03-27T10:57:41.768Z,0.37
2016-03-27T10:57:55.065Z,0.37
2016-03-27T10:58:08.597Z,0.41
2016-03-27T10:58:21.925Z,0.44
2016-03-27T10:58:35.209Z,0.39
2016-03-27T10:58:48.490Z,0.42
2016-03-27T10:59:01.975Z,0.37
2016-03-27T10:59:15.256Z,0.37
2016-03-27T10:59:28.539Z,0.37
2016-03-27T10:59:41.867Z,0.34
2016-03-27T10:59:55.164Z,0.47
2016-03-27T11:00:08.445Z,0.42
2016-03-27T11:00:21.727Z,0.42
2016-03-27T11:00:35.026Z,0.45
2016-03-27T11:00:48.308Z,0.34
2016-03-27T11:01:01.620Z,0.45
2016-03-27T11:01:14.933Z,0.44
2016-03-27T11:01:28.217Z,0.45
2016-03-27T11:01:41.498Z,0.5
2016-03-27T11:01:54.779Z,0.34
2016-03-27T11:02:08.076Z,0.37
2016-03-27T11:02:21.373Z,0.34
2016-03-27T11:02:34.688Z,0.37
2016-03-27T11:02:48.000Z,0.17
2016-03-27T11:03:01.297Z,0.02
2016-03-27T11:03:14.610Z,-0.01
2016-03-27T11:03:27.864Z,-0.23
2016-03-27T11:03:41.145Z,-0.38
2016-03-27T11:03:54.426Z,-0.23
2016-03-27T11:04:07.707Z,-0.28
2016-03-27T11:04:21.004Z,-0.43
2016-03-27T11:04:34.319Z,-0.45
2016-03-27T11:04:47.631Z,-0.52
2016-03-27T11:05:00.944Z,-0.62
2016-03-27T11:05:14.225Z,-0.87
2016-03-27T11:05:27.508Z,-0.91
2016-03-27T11:05:40.789Z,-0.95
2016-03-27T11:05:54.071Z,-0.84
2016-03-27T11:06:07.383Z,-0.82
2016-03-27T11:06:20.696Z,-0.76
2016-03-27T11:06:34.028Z,-0.74
2016-03-27T11:06:47.293Z,-0.77
2016-03-27T11:07:00.418Z,-0.77
2016-03-27T11:07:13.700Z,-0.77
2016-03-27T11:07:26.999Z,-0.8
2016-03-27T11:07:40.295Z,-0.76
2016-03-27T11:07:53.608Z,-0.69
2016-03-27T11:08:06.920Z,-0.76
2016-03-27T11:08:20.202Z,-0.74
2016-03-27T11:08:33.485Z,-0.74
2016-03-27T11:08:46.766Z,-0.73
2016-03-27T11:09:00.063Z,-0.7
2016-03-27T11:09:13.360Z,-0.7
2016-03-27T11:09:26.691Z,-0.76
2016-03-27T11:09:40.019Z,-0.84
2016-03-27T11:09:53.363Z,-0.76
2016-03-27T11:10:06.644Z,-0.8
2016-03-27T11:10:19.941Z,-0.76
2016-03-27T11:10:33.225Z,-0.76
2016-03-27T11:10:46.522Z,-0.77
2016-03-27T11:10:59.835Z,-0.72
2016-03-27T11:11:13.163Z,-0.77
2016-03-27T11:11:26.510Z,-0.61
2016-03-27T11:11:39.791Z,-0.56
2016-03-27T11:11:53.072Z,-0.61
2016-03-27T11:12:06.353Z,-0.49
2016-03-27T11:12:19.650Z,-0.49
2016-03-27T11:12:32.933Z,-0.36
2016-03-27T11:12:46.262Z,-0.3
2016-03-27T11:12:59.605Z,-0.3
2016-03-27T11:13:12.887Z,-0.36
2016-03-27T11:13:26.171Z,-0.33
2016-03-27T11:13:39.452Z,-0.45
2016-03-27T11:14:06.905Z,-0.34
2016-03-27T11:14:20.202Z,-0.38
2016-03-27T11:14:33.533Z,-0.45
2016-03-27T11:14:46.861Z,-0.61
2016-03-27T11:15:00.158Z,-0.69
2016-03-27T11:15:13.439Z,-0.62
2016-03-27T11:15:26.754Z,-0.62
2016-03-27T11:15:39.879Z,-0.64
2016-03-27T11:15:53.160Z,-0.59
2016-03-27T11:16:06.473Z,-0.55
2016-03-27T11:16:19.785Z,-0.61
2016-03-27T11:16:32.898Z,-0.59
2016-03-27T11:16:46.179Z,-0.49
2016-03-27T11:16:59.460Z,-0.49
2016-03-27T11:17:12.773Z,-0.56
2016-03-27T11:17:26.072Z,-0.46
2016-03-27T11:17:39.369Z,-0.41
2016-03-27T11:17:52.666Z,-0.34
2016-03-27T11:18:05.947Z,-0.48
2016-03-27T11:18:19.135Z,-0.64
2016-03-27T11:18:32.449Z,-0.69
2016-03-27T11:18:45.746Z,-0.66
2016-03-27T11:18:59.043Z,-0.77
2016-03-27T11:19:12.324Z,-0.82
2016-03-27T11:19:25.625Z,-0.93
2016-03-27T11:19:38.938Z,-0.93
2016-03-27T11:19:52.266Z,-0.84
2016-03-27T11:20:05.547Z,-0.74
2016-03-27T11:20:18.844Z,-0.62
2016-03-27T11:20:32.143Z,-0.66
2016-03-27T11:20:45.424Z,-0.52
2016-03-27T11:20:58.705Z,-0.56
2016-03-27T11:21:12.018Z,-0.58
2016-03-27T11:21:25.348Z,-0.52
2016-03-27T11:21:38.645Z,-0.51
2016-03-27T11:21:51.926Z,-0.48
2016-03-27T11:22:05.207Z,-0.46
2016-03-27T11:22:18.489Z,-0.48
2016-03-27T11:22:31.790Z,-0.46
2016-03-27T11:22:45.086Z,-0.67
2016-03-27T11:22:58.430Z,-0.56
2016-03-27T11:23:11.743Z,-0.61
2016-03-27T11:23:25.010Z,-0.62
2016-03-27T11:23:38.307Z,-0.62
2016-03-27T11:23:51.588Z,-0.58
2016-03-27T11:24:04.870Z,-0.69
2016-03-27T11:24:18.167Z,-0.61
2016-03-27T11:24:31.497Z,-0.7
2016-03-27T11:24:44.653Z,-0.95
2016-03-27T11:24:57.794Z,-0.84
2016-03-27T11:25:11.075Z,-0.89
2016-03-27T11:25:24.356Z,-0.95
2016-03-27T11:25:37.672Z,-1.09
2016-03-27T11:25:50.953Z,-1.03
2016-03-27T11:26:04.281Z,-0.98
2016-03-27T11:26:17.422Z,-0.92
2016-03-27T11:26:30.706Z,-0.95
2016-03-27T11:26:43.987Z,-0.74
2016-03-27T11:26:57.253Z,-0.79
2016-03-27T11:27:10.518Z,-0.76
2016-03-27T11:27:23.800Z,-0.64
2016-03-27T11:27:37.099Z,-0.64
2016-03-27T11:27:50.412Z,-0.58
2016-03-27T11:28:03.709Z,-0.56
2016-03-27T11:28:16.990Z,-0.58
2016-03-27T11:28:30.273Z,-0.64
2016-03-27T11:28:43.555Z,-0.58
2016-03-27T11:28:56.851Z,-0.62
2016-03-27T11:29:10.164Z,-0.69
2016-03-27T11:29:23.492Z,-0.8
2016-03-27T11:29:36.808Z,-0.74
2016-03-27T11:29:50.089Z,-0.84
2016-03-27T11:30:03.354Z,-0.82
2016-03-27T11:30:16.651Z,-0.8
2016-03-27T11:30:29.936Z,-0.74
2016-03-27T11:30:43.232Z,-0.66
2016-03-27T11:30:56.545Z,-0.59
2016-03-27T11:31:09.889Z,-0.55
2016-03-27T11:31:23.186Z,-0.36
2016-03-27T11:31:36.469Z,-0.37
2016-03-27T11:31:49.781Z,-0.37
2016-03-27T11:32:03.063Z,-0.36
2016-03-27T11:32:16.359Z,-0.25
2016-03-27T11:32:29.659Z,-0.15
2016-03-27T11:32:42.972Z,-0.15
2016-03-27T11:32:56.284Z,-0.07
2016-03-27T11:33:09.597Z,0.03
2016-03-27T11:33:22.956Z,-0.07
2016-03-27T11:33:36.240Z,-0.15
2016-03-27T11:33:49.522Z,-0.15
2016-03-27T11:34:02.819Z,-0.15
2016-03-27T11:34:16.131Z,-0.13
2016-03-27T11:34:29.431Z,-0.05
2016-03-27T11:34:42.728Z,-0.04
2016-03-27T11:34:56.040Z,-0.3
2016-03-27T11:35:09.337Z,-0.23
2016-03-27T11:35:22.618Z,-0.3
2016-03-27T11:35:35.903Z,-0.34
2016-03-27T11:35:49.184Z,-0.38
2016-03-27T11:36:02.512Z,-0.43
2016-03-27T11:36:15.825Z,-0.43
2016-03-27T11:36:29.155Z,-0.34
2016-03-27T11:36:42.452Z,-0.36
2016-03-27T11:36:55.733Z,-0.52
2016-03-27T11:37:09.014Z,-0.59
2016-03-27T11:37:22.295Z,-0.82
2016-03-27T11:37:35.594Z,-0.91
2016-03-27T11:37:48.922Z,-0.82
2016-03-27T11:38:02.235Z,-0.95
2016-03-27T11:38:15.532Z,-0.98
2016-03-27T11:38:28.816Z,-1.01
2016-03-27T11:38:42.097Z,-1.03
2016-03-27T11:38:55.394Z,-1.14
2016-03-27T11:39:08.675Z,-1.14
2016-03-27T11:39:21.972Z,-1.19
2016-03-27T11:39:35.303Z,-1.21
2016-03-27T11:39:48.616Z,-1.25
2016-03-27T11:40:01.881Z,-1.35
2016-03-27T11:40:15.178Z,-1.27
2016-03-27T11:40:28.463Z,-1.32
2016-03-27T11:40:41.759Z,-1.3
2016-03-27T11:40:55.056Z,-1.4
2016-03-27T11:41:08.384Z,-1.34
2016-03-27T11:41:21.713Z,-1.24
2016-03-27T11:41:34.996Z,-1.24
2016-03-27T11:41:48.277Z,-1.25
2016-03-27T11:42:01.574Z,-1.19
2016-03-27T11:42:14.855Z,-1.21
2016-03-27T11:42:28.155Z,-1.19
2016-03-27T11:42:41.452Z,-1.13
2016-03-27T11:42:54.780Z,-1.13
2016-03-27T11:43:08.124Z,-1.13
2016-03-27T11:43:21.624Z,-1.14
2016-03-27T11:43:34.908Z,-1.17
2016-03-27T11:43:48.189Z,-1.3
2016-03-27T11:44:01.486Z,-1.21
2016-03-27T11:44:14.783Z,-1.22
2016-03-27T11:44:28.082Z,-1.27
2016-03-27T11:44:41.410Z,-1.45
2016-03-27T11:44:54.723Z,-1.46
2016-03-27T11:45:08.004Z,-1.63
2016-03-27T11:45:21.285Z,-1.6
2016-03-27T11:45:34.569Z,-1.61
2016-03-27T11:45:47.866Z,-1.7
2016-03-27T11:46:01.179Z,-1.71
2016-03-27T11:46:14.491Z,-1.81
2016-03-27T11:46:27.807Z,-1.85
2016-03-27T11:46:41.104Z,-1.81
2016-03-27T11:46:54.385Z,-1.89
2016-03-27T11:47:07.697Z,-1.94
2016-03-27T11:47:20.979Z,-1.85
2016-03-27T11:47:34.293Z,-1.84
2016-03-27T11:47:47.590Z,-1.92
2016-03-27T11:48:00.918Z,-1.85
2016-03-27T11:48:14.262Z,-1.92
2016-03-27T11:48:27.796Z,-1.96
2016-03-27T11:48:41.093Z,-2
2016-03-27T11:48:54.374Z,-1.89
2016-03-27T11:49:07.671Z,-1.84
2016-03-27T11:49:20.952Z,-1.91
2016-03-27T11:50:01.737Z,-1.89
2016-03-27T11:50:15.049Z,-1.86
2016-03-27T11:50:28.193Z,-1.85
2016-03-27T11:50:41.474Z,-1.86
2016-03-27T11:50:54.740Z,-1.84
2016-03-27T11:51:08.052Z,-1.88
2016-03-27T11:51:21.349Z,-1.78
2016-03-27T11:51:34.695Z,-1.82
2016-03-27T11:51:48.038Z,-1.82
2016-03-27T11:52:01.320Z,-1.81
2016-03-27T11:52:14.617Z,-1.73
2016-03-27T11:52:27.901Z,-1.68
2016-03-27T11:52:41.182Z,-1.76
2016-03-27T11:52:54.495Z,-1.74
2016-03-27T11:53:07.807Z,-1.82
2016-03-27T11:53:21.151Z,-1.85
2016-03-27T11:53:34.435Z,-1.88
2016-03-27T11:53:47.716Z,-1.81
2016-03-27T11:54:01.013Z,-1.79
2016-03-27T11:54:14.294Z,-1.66
2016-03-27T11:54:27.578Z,-1.71
2016-03-27T11:54:40.890Z,-1.74
2016-03-27T11:54:54.234Z,-1.64
2016-03-27T11:55:07.531Z,-1.81
2016-03-27T11:55:20.812Z,-1.7
2016-03-27T11:55:34.096Z,-1.61
2016-03-27T11:55:47.362Z,-1.55
2016-03-27T11:56:00.659Z,-1.48
2016-03-27T11:56:13.956Z,-1.42
2016-03-27T11:56:27.271Z,-1.5
2016-03-27T11:56:40.537Z,-1.4
2016-03-27T11:56:53.802Z,-1.38
2016-03-27T11:57:07.099Z,-1.22
2016-03-27T11:57:20.396Z,-1.32
2016-03-27T11:57:33.696Z,-1.31
2016-03-27T11:57:47.009Z,-1.3
2016-03-27T11:58:00.337Z,-1.22
2016-03-27T11:58:13.618Z,-1.09
2016-03-27T11:58:26.917Z,-1.01
2016-03-27T11:58:40.182Z,-0.85
2016-03-27T11:58:53.464Z,-0.93
2016-03-27T11:59:06.761Z,-0.93
2016-03-27T11:59:20.089Z,-0.96
2016-03-27T11:59:33.435Z,-0.93
2016-03-27T11:59:46.717Z,-0.92
2016-03-27T11:59:59.998Z,-0.95
2016-03-27T12:00:13.123Z,-0.92
2016-03-27T12:00:26.423Z,-0.96
2016-03-27T12:00:39.720Z,-0.91
2016-03-27T12:00:53.032Z,-0.8
2016-03-27T12:01:06.360Z,-0.76
2016-03-27T12:01:19.642Z,-0.69
2016-03-27T12:01:33.237Z,-0.7
2016-03-27T12:01:46.394Z,-0.74
2016-03-27T12:01:59.706Z,-0.82
2016-03-27T12:02:12.987Z,-0.93
2016-03-27T12:02:26.271Z,-0.93
2016-03-27T12:02:39.567Z,-0.89
2016-03-27T12:02:52.864Z,-0.92
2016-03-27T12:03:06.177Z,-0.85
2016-03-27T12:03:19.489Z,-0.84
2016-03-27T12:03:32.696Z,-0.91
2016-03-27T12:03:46.118Z,-0.79
2016-03-27T12:03:59.415Z,-0.79
2016-03-27T12:04:12.728Z,-0.79
2016-03-27T12:04:26.042Z,-0.77
2016-03-27T12:04:39.323Z,-0.79
2016-03-27T12:04:52.605Z,-0.76
2016-03-27T12:05:05.902Z,-0.92
2016-03-27T12:05:19.245Z,-1.04
2016-03-27T12:05:32.530Z,-1.14
2016-03-27T12:05:45.858Z,-1.22
2016-03-27T12:05:59.186Z,-1.22
2016-03-27T12:06:12.498Z,-1.24
2016-03-27T12:06:25.798Z,-1.32
2016-03-27T12:06:39.079Z,-1.38
2016-03-27T12:06:52.361Z,-1.35
2016-03-27T12:07:05.658Z,-1.3
2016-03-27T12:07:18.954Z,-1.42
2016-03-27T12:07:32.269Z,-1.38
2016-03-27T12:07:45.425Z,-1.3
2016-03-27T12:07:58.597Z,-1.19
2016-03-27T12:08:11.863Z,-1.22
2016-03-27T12:08:25.160Z,-1.21
2016-03-27T12:08:38.444Z,-1.24
2016-03-27T12:08:51.725Z,-1.34
2016-03-27T12:09:05.022Z,-1.24
2016-03-27T12:09:18.334Z,-1.45
2016-03-27T12:09:31.666Z,-1.58
2016-03-27T12:09:44.962Z,-1.79
2016-03-27T12:09:58.244Z,-1.88
2016-03-27T12:10:11.541Z,-1.89
2016-03-27T12:10:24.822Z,-1.91
2016-03-27T12:10:38.106Z,-1.94
2016-03-27T12:10:51.403Z,-1.82
2016-03-27T12:11:04.700Z,-2.06
2016-03-27T12:11:17.997Z,-1.97
2016-03-27T12:11:31.280Z,-2.09
2016-03-27T12:11:44.405Z,-2.18
2016-03-27T12:11:57.686Z,-2.37
2016-03-27T12:12:10.967Z,-2.44
2016-03-27T12:12:24.280Z,-2.61
2016-03-27T12:12:37.595Z,-2.67
2016-03-27T12:12:50.783Z,-2.68
2016-03-27T12:13:04.080Z,-2.81
2016-03-27T12:13:17.361Z,-2.67
2016-03-27T12:13:30.644Z,-2.76
2016-03-27T12:13:43.941Z,-2.7
2016-03-27T12:13:57.222Z,-2.78
2016-03-27T12:14:10.535Z,-2.81
2016-03-27T12:14:23.832Z,-2.81
2016-03-27T12:14:37.132Z,-2.81
2016-03-27T12:14:50.413Z,-2.78
2016-03-27T12:15:03.694Z,-2.91
2016-03-27T12:15:16.991Z,-2.78
2016-03-27T12:15:30.321Z,-2.7
2016-03-27T12:15:43.634Z,-2.78
2016-03-27T12:15:56.931Z,-2.88
2016-03-27T12:16:10.212Z,-2.88
2016-03-27T12:16:23.477Z,-2.73
2016-03-27T12:16:36.778Z,-2.76
2016-03-27T12:16:49.935Z,-2.6
2016-03-27T12:17:03.247Z,-2.7
2016-03-27T12:17:16.575Z,-2.61
2016-03-27T12:17:29.858Z,-2.58
2016-03-27T12:17:43.171Z,-2.6
2016-03-27T12:17:56.452Z,-2.75
2016-03-27T12:18:09.733Z,-2.79
2016-03-27T12:18:23.046Z,-2.67
2016-03-27T12:18:36.205Z,-2.72
2016-03-27T12:18:49.830Z,-2.65
2016-03-27T12:19:03.205Z,-2.58
2016-03-27T12:19:16.486Z,-2.5
2016-03-27T12:19:29.785Z,-2.5
2016-03-27T12:19:43.082Z,-2.47
2016-03-27T12:19:56.582Z,-2.46
2016-03-27T12:20:09.879Z,-2.61
2016-03-27T12:20:23.192Z,-2.67
2016-03-27T12:20:36.477Z,-2.76
2016-03-27T12:20:49.758Z,-2.75
2016-03-27T12:21:03.055Z,-2.83
2016-03-27T12:21:16.336Z,-2.75
2016-03-27T12:21:29.635Z,-2.76
2016-03-27T12:21:42.916Z,-2.79
2016-03-27T12:21:56.198Z,-2.76
2016-03-27T12:22:09.479Z,-2.68
2016-03-27T12:22:22.776Z,-2.7
2016-03-27T12:22:36.075Z,-2.75
2016-03-27T12:22:49.356Z,-2.88
2016-03-27T12:23:02.653Z,-2.97
2016-03-27T12:23:15.950Z,-2.99
2016-03-27T12:23:29.235Z,-3.03
2016-03-27T12:23:42.532Z,-3.09
2016-03-27T12:23:55.829Z,-3.17
2016-03-27T12:24:09.110Z,-3.21
2016-03-27T12:24:22.407Z,-3.24
2016-03-27T12:24:35.706Z,-3.22
2016-03-27T12:24:48.987Z,-3.14
2016-03-27T12:25:02.284Z,-3.07
2016-03-27T12:25:15.549Z,-3.09
2016-03-27T12:25:28.833Z,-3.09
2016-03-27T12:25:42.098Z,-3.09
2016-03-27T12:25:55.364Z,-3.14
2016-03-27T12:26:08.645Z,-3.06
2016-03-27T12:26:21.942Z,-3.12
2016-03-27T12:26:35.226Z,-3.07
2016-03-27T12:26:48.492Z,-3.04
2016-03-27T12:27:01.804Z,-3.03
2016-03-27T12:27:15.086Z,-3.06
2016-03-27T12:27:28.385Z,-3.12
2016-03-27T12:27:41.698Z,-3.14
2016-03-27T12:27:54.979Z,-3.11
2016-03-27T12:28:08.260Z,-3.04
2016-03-27T12:28:21.573Z,-3.07
2016-03-27T12:28:34.842Z,-2.96
2016-03-27T12:28:48.138Z,-2.91
2016-03-27T12:29:01.451Z,-2.83
2016-03-27T12:29:14.732Z,-2.79
2016-03-27T12:29:28.031Z,-2.78
2016-03-27T12:29:41.328Z,-2.81
2016-03-27T12:29:54.609Z,-2.67
2016-03-27T12:30:07.890Z,-2.83
2016-03-27T12:30:21.187Z,-2.81
2016-03-27T12:30:34.472Z,-2.76
2016-03-27T12:30:47.753Z,-2.88